Weiner, Arkansas
Current Conditions -  °F | °C
As of 5:56 PM on Saturday 20 Dec 2014 (Local Time) from KM19 Reporting Station
Overcast Overcast  
Wind Chill: 41°   Ceiling: 3400
Heat Index: 41°   Visibility: 10mi
Dew Point: 37°   Wind: 0mph
Humidity: 85%   Direction: NA
Pressure: 30.27"   Gusts: NA
Location:  35.62°N, 90.9°W
Report Text: KM19 202356Z AUTO 00000KT 10SM BKN034 OVC049 05/03 A3027 RMK AO2 53006 T00500027 10066 20050 SLP250
Loading
Personal Weather Stations






























Interactive Weather Map New forecast layout! Learn more

10-Day Weather Forecast

Advertisements
Track Severe Weather on mobile